createdAt,value
2018-08-04T00:01:05.724Z,27.48
2018-08-04T00:04:08.934Z,27.49
2018-08-04T00:07:12.329Z,27.40
2018-08-04T00:10:19.591Z,27.34
2018-08-04T00:13:22.790Z,27.24
2018-08-04T00:16:25.877Z,27.19
2018-08-04T00:19:29.104Z,27.15
2018-08-04T00:22:32.290Z,27.22
2018-08-04T00:25:35.406Z,27.25
2018-08-04T00:28:38.514Z,27.16
2018-08-04T00:31:41.631Z,27.18
2018-08-04T00:34:44.761Z,27.20
2018-08-04T00:37:47.850Z,27.17
2018-08-04T00:40:50.926Z,27.18
2018-08-04T00:43:54.042Z,27.20
2018-08-04T00:46:57.143Z,27.17
2018-08-04T00:50:00.262Z,27.24
2018-08-04T00:53:03.381Z,27.12
2018-08-04T00:56:06.889Z,27.20
2018-08-04T00:59:10.020Z,27.27
2018-08-04T01:02:13.242Z,27.20
2018-08-04T01:05:16.368Z,27.23
2018-08-04T01:08:19.520Z,27.17
2018-08-04T01:11:22.655Z,27.14
2018-08-04T01:14:25.838Z,27.21
2018-08-04T01:17:29.319Z,27.11
2018-08-04T01:20:32.439Z,27.04
2018-08-04T01:23:35.561Z,27.06
2018-08-04T01:26:38.787Z,27.01
2018-08-04T01:29:41.836Z,26.88
2018-08-04T01:32:44.967Z,26.88
2018-08-04T01:35:48.116Z,26.90
2018-08-04T01:38:51.306Z,26.85
2018-08-04T01:41:54.431Z,26.81
2018-08-04T01:44:57.547Z,26.72
2018-08-04T01:48:00.698Z,26.68
2018-08-04T01:51:03.834Z,26.68
2018-08-04T01:54:07.029Z,26.78
2018-08-04T01:57:10.158Z,26.61
2018-08-04T02:00:13.411Z,26.81
2018-08-04T02:03:16.538Z,26.63
2018-08-04T02:06:19.713Z,26.56
2018-08-04T02:09:22.785Z,26.37
2018-08-04T02:12:26.155Z,26.35
2018-08-04T02:15:29.369Z,26.28
2018-08-04T02:18:32.525Z,26.28
2018-08-04T02:21:35.671Z,26.31
2018-08-04T02:24:38.718Z,26.26
2018-08-04T02:27:41.777Z,26.24
2018-08-04T02:30:44.902Z,26.27
2018-08-04T02:33:48.045Z,25.91
2018-08-04T02:36:51.127Z,25.87
2018-08-04T02:39:54.322Z,26.05
2018-08-04T02:42:57.469Z,25.94
2018-08-04T02:46:00.595Z,25.96
2018-08-04T02:49:03.775Z,25.90
2018-08-04T02:55:26.146Z,25.71
2018-08-04T02:58:29.322Z,25.68
2018-08-04T03:01:32.508Z,25.72
2018-08-04T03:04:35.665Z,25.69
2018-08-04T03:07:38.758Z,25.64
2018-08-04T03:10:41.881Z,25.55
2018-08-04T03:13:44.958Z,25.44
2018-08-04T03:16:48.098Z,25.38
2018-08-04T03:19:51.138Z,25.47
2018-08-04T03:22:54.223Z,25.42
2018-08-04T03:25:57.460Z,25.42
2018-08-04T03:29:00.594Z,25.37
2018-08-04T03:32:03.814Z,25.28
2018-08-04T03:35:06.984Z,25.25
2018-08-04T03:38:10.100Z,25.11
2018-08-04T03:41:13.236Z,25.15
2018-08-04T03:44:16.353Z,25.15
2018-08-04T03:47:19.491Z,25.16
2018-08-04T03:50:22.602Z,25.04
2018-08-04T03:53:25.776Z,25.06
2018-08-04T03:56:28.941Z,25.09
2018-08-04T03:59:32.089Z,25.14
2018-08-04T04:02:35.214Z,25.06
2018-08-04T04:05:38.323Z,24.86
2018-08-04T04:08:41.450Z,24.88
2018-08-04T04:11:44.965Z,24.95
2018-08-04T04:14:48.105Z,24.98
2018-08-04T04:17:51.186Z,24.83
2018-08-04T04:21:01.269Z,24.83
2018-08-04T04:24:04.417Z,24.74
2018-08-04T04:27:10.519Z,24.89
2018-08-04T04:30:14.371Z,24.86
2018-08-04T04:33:17.457Z,25.02
2018-08-04T04:36:20.582Z,24.99
2018-08-04T04:39:23.771Z,25.08
2018-08-04T04:42:31.775Z,25.14
2018-08-04T04:45:34.806Z,25.10
2018-08-04T04:48:37.883Z,25.06
2018-08-04T04:51:42.026Z,25.19
2018-08-04T04:54:45.101Z,25.16
2018-08-04T04:57:48.229Z,25.18
2018-08-04T05:00:51.512Z,24.99
2018-08-04T05:03:54.693Z,25.09
2018-08-04T05:06:57.743Z,25.10
2018-08-04T05:10:00.875Z,25.12
2018-08-04T05:13:04.060Z,25.22
2018-08-04T05:16:07.290Z,25.26
2018-08-04T05:19:10.519Z,25.22
2018-08-04T05:22:13.575Z,25.22
2018-08-04T05:25:16.702Z,25.30
2018-08-04T05:28:19.854Z,25.28
2018-08-04T05:31:22.985Z,25.36
2018-08-04T05:34:26.025Z,25.45
2018-08-04T05:37:29.228Z,25.40
2018-08-04T05:40:32.505Z,25.42
2018-08-04T05:43:35.802Z,25.49
2018-08-04T05:46:38.929Z,25.59
2018-08-04T05:49:42.019Z,25.57
2018-08-04T05:52:45.178Z,25.66
2018-08-04T05:55:48.258Z,25.65
2018-08-04T05:58:51.589Z,25.72
2018-08-04T06:01:54.741Z,25.79
2018-08-04T06:04:57.866Z,25.90
2018-08-04T06:08:00.951Z,25.80
2018-08-04T06:11:04.153Z,25.64
2018-08-04T06:14:07.350Z,25.90
2018-08-04T06:17:10.513Z,25.91
2018-08-04T06:20:13.634Z,25.85
2018-08-04T06:23:16.714Z,26.15
2018-08-04T06:26:19.807Z,26.20
2018-08-04T06:29:22.919Z,26.21
2018-08-04T06:32:25.998Z,26.35
2018-08-04T06:35:29.070Z,26.34
2018-08-04T06:38:32.172Z,26.44
2018-08-04T06:41:35.294Z,26.56
2018-08-04T06:44:38.366Z,26.57
2018-08-04T06:47:41.446Z,26.64
2018-08-04T06:50:44.505Z,26.63
2018-08-04T06:53:47.663Z,26.51
2018-08-04T06:56:50.856Z,25.50
2018-08-04T06:59:53.970Z,25.85
2018-08-04T07:02:57.065Z,26.51
2018-08-04T07:06:00.379Z,26.37
2018-08-04T07:09:05.821Z,25.71
2018-08-04T07:12:09.152Z,26.57
2018-08-04T07:15:12.237Z,26.73
2018-08-04T07:18:15.424Z,26.87
2018-08-04T07:21:18.374Z,27.04
2018-08-04T07:24:21.365Z,27.45
2018-08-04T07:27:24.306Z,27.72
2018-08-04T07:30:27.346Z,27.33
2018-08-04T07:33:30.687Z,27.77
2018-08-04T07:36:33.773Z,27.87
2018-08-04T07:39:36.931Z,27.95
2018-08-04T07:42:40.240Z,27.86
2018-08-04T07:45:43.448Z,27.58
2018-08-04T07:48:46.538Z,27.49
2018-08-04T07:51:49.533Z,27.49
2018-08-04T07:54:52.681Z,27.48
2018-08-04T07:57:55.727Z,27.81
2018-08-04T08:00:58.747Z,27.81
2018-08-04T08:04:01.940Z,28.16
2018-08-04T08:07:05.198Z,28.33
2018-08-04T08:10:11.469Z,28.28
2018-08-04T08:13:15.683Z,28.56
2018-08-04T08:16:19.990Z,28.56
2018-08-04T08:19:24.223Z,28.57
2018-08-04T08:22:43.179Z,28.46
2018-08-04T08:25:58.148Z,28.56
2018-08-04T08:29:04.062Z,28.63
2018-08-04T08:32:08.377Z,28.85
2018-08-04T08:35:12.554Z,28.95
2018-08-04T08:38:16.840Z,29.12
2018-08-04T08:41:24.482Z,29.21
2018-08-04T08:44:28.988Z,29.26
2018-08-04T08:47:33.159Z,29.33
2018-08-04T08:50:36.377Z,29.32
2018-08-04T08:53:39.509Z,29.51
2018-08-04T08:56:42.709Z,29.54
2018-08-04T08:59:45.845Z,29.51
2018-08-04T09:02:48.970Z,29.64
2018-08-04T09:05:52.123Z,29.79
2018-08-04T09:08:55.231Z,29.79
2018-08-04T09:11:58.414Z,29.97
2018-08-04T09:15:01.569Z,30.01
2018-08-04T09:18:04.732Z,30.09
2018-08-04T09:21:08.011Z,30.18
2018-08-04T09:24:11.122Z,30.37
2018-08-04T09:27:14.220Z,30.48
2018-08-04T09:37:53.281Z,30.56
2018-08-04T11:01:45.269Z,32.56
2018-08-04T11:04:49.610Z,32.76
2018-08-04T11:07:54.815Z,33.00
2018-08-04T12:19:14.202Z,34.46
2018-08-04T12:22:17.804Z,34.46
2018-08-04T12:25:25.364Z,34.54
2018-08-04T12:32:10.024Z,34.63
2018-08-04T12:35:15.387Z,34.78
2018-08-04T12:38:37.658Z,34.90
2018-08-04T12:41:47.156Z,34.96
2018-08-04T13:40:13.373Z,35.96
2018-08-04T13:43:16.577Z,36.15
2018-08-04T13:46:19.859Z,36.20
2018-08-04T13:49:23.140Z,36.26
2018-08-04T13:52:26.587Z,36.16
2018-08-04T13:55:30.053Z,36.19
2018-08-04T13:58:33.439Z,36.32
2018-08-04T14:01:36.845Z,36.37
2018-08-04T14:04:40.984Z,36.42
2018-08-04T14:07:44.397Z,36.00
2018-08-04T14:10:47.973Z,36.19
2018-08-04T14:13:51.548Z,36.25
2018-08-04T14:16:55.043Z,36.32
2018-08-04T14:28:13.174Z,36.37
2018-08-04T14:31:23.310Z,34.52
2018-08-04T14:34:26.957Z,34.71
2018-08-04T14:37:30.513Z,34.92
2018-08-04T14:40:35.967Z,35.25
2018-08-04T14:43:40.747Z,35.10
2018-08-04T14:46:46.640Z,35.49
2018-08-04T14:49:50.147Z,35.68
2018-08-04T14:52:59.009Z,35.81
2018-08-04T14:56:05.580Z,35.80
2018-08-04T14:59:10.155Z,35.69
2018-08-04T15:02:13.805Z,34.95
2018-08-04T15:05:19.466Z,34.38
2018-08-04T15:08:22.916Z,33.93
2018-08-04T15:11:26.321Z,34.16
2018-08-04T15:14:29.786Z,34.82
2018-08-04T15:17:33.252Z,34.77
2018-08-04T15:20:36.786Z,34.85
2018-08-04T15:23:43.600Z,34.80
2018-08-04T15:26:50.203Z,34.76
2018-08-04T15:29:56.653Z,34.70
2018-08-04T15:33:01.186Z,34.43
2018-08-04T15:36:38.006Z,34.03
2018-08-04T16:35:20.978Z,32.61
2018-08-04T16:38:25.942Z,32.74
2018-08-04T16:41:29.708Z,33.07
2018-08-04T16:44:33.159Z,33.04
2018-08-04T16:47:36.460Z,33.01
2018-08-04T16:50:39.764Z,33.20
2018-08-04T16:53:43.024Z,33.01
2018-08-04T16:56:46.266Z,32.93
2018-08-04T16:59:49.433Z,32.74
2018-08-04T17:02:52.653Z,32.75
2018-08-04T17:05:55.866Z,32.43
2018-08-04T17:08:59.096Z,32.56
2018-08-04T17:12:02.385Z,32.31
2018-08-04T17:15:05.753Z,32.42
2018-08-04T17:18:08.984Z,32.62
2018-08-04T17:21:12.592Z,32.41
2018-08-04T17:24:15.782Z,32.29
2018-08-04T17:27:19.163Z,32.39
2018-08-04T17:30:22.426Z,32.27
2018-08-04T17:33:26.067Z,32.34
2018-08-04T17:36:29.695Z,32.29
2018-08-04T17:39:33.280Z,32.25
2018-08-04T17:42:36.520Z,32.12
2018-08-04T17:45:39.813Z,32.19
2018-08-04T17:48:43.065Z,32.07
2018-08-04T17:51:46.255Z,32.10
2018-08-04T17:54:49.860Z,32.18
2018-08-04T17:57:53.044Z,32.07
2018-08-04T18:00:56.307Z,31.99
2018-08-04T18:04:02.624Z,32.00
2018-08-04T18:07:06.344Z,31.75
2018-08-04T18:10:10.520Z,31.74
2018-08-04T18:13:14.126Z,31.75
2018-08-04T18:16:20.976Z,31.49
2018-08-04T18:49:06.180Z,30.49
2018-08-04T18:52:09.867Z,29.54
2018-08-04T18:55:12.962Z,29.12
2018-08-04T18:58:16.254Z,29.21
2018-08-04T19:01:19.484Z,29.16
2018-08-04T19:04:22.642Z,29.26
2018-08-04T19:07:25.750Z,29.21
2018-08-04T19:10:28.874Z,29.30
2018-08-04T19:13:32.187Z,29.42
2018-08-04T19:16:35.476Z,29.31
2018-08-04T19:19:38.665Z,29.18
2018-08-04T19:22:41.866Z,29.15
2018-08-04T19:26:03.901Z,29.08
2018-08-04T19:29:07.101Z,29.07
2018-08-04T19:32:10.249Z,29.23
2018-08-04T19:35:13.385Z,29.11
2018-08-04T19:38:16.588Z,29.17
2018-08-04T19:41:19.767Z,29.12
2018-08-04T19:44:22.848Z,29.09
2018-08-04T19:47:25.928Z,29.05
2018-08-04T19:50:29.080Z,28.94
2018-08-04T19:53:32.315Z,28.99
2018-08-04T19:56:35.917Z,28.94
2018-08-04T19:59:40.181Z,28.96
2018-08-04T20:02:43.475Z,29.22
2018-08-04T20:05:46.646Z,29.03
2018-08-04T20:08:49.822Z,28.88
2018-08-04T20:11:52.883Z,28.70
2018-08-04T20:14:55.997Z,28.76
2018-08-04T20:17:59.204Z,28.87
2018-08-04T20:21:02.347Z,28.66
2018-08-04T20:24:05.498Z,28.81
2018-08-04T20:27:08.708Z,28.62
2018-08-04T20:30:11.822Z,28.63
2018-08-04T20:33:14.950Z,28.77
2018-08-04T20:36:18.213Z,28.59
2018-08-04T20:39:21.590Z,28.67
2018-08-04T20:42:24.736Z,28.77
2018-08-04T20:45:27.992Z,28.68
2018-08-04T20:48:31.201Z,28.65
2018-08-04T20:51:41.131Z,28.69
2018-08-04T20:54:44.685Z,28.73
2018-08-04T20:57:48.574Z,28.59
2018-08-04T21:01:09.163Z,28.70
2018-08-04T21:04:12.359Z,28.62
2018-08-04T21:07:15.729Z,28.59
2018-08-04T21:10:19.107Z,28.38
2018-08-04T21:13:22.567Z,28.46
2018-08-04T21:16:25.763Z,28.31
2018-08-04T21:19:28.937Z,28.30
2018-08-04T21:22:32.020Z,28.10
2018-08-04T21:25:35.146Z,28.26
2018-08-04T21:28:39.108Z,28.04
2018-08-04T21:31:42.301Z,28.51
2018-08-04T21:34:45.404Z,28.25
2018-08-04T21:37:48.665Z,28.27
2018-08-04T21:40:51.842Z,28.24
2018-08-04T21:43:55.182Z,28.30
2018-08-04T21:46:59.467Z,28.06
2018-08-04T21:50:02.604Z,28.03
2018-08-04T21:53:05.871Z,27.90
2018-08-04T21:56:10.043Z,28.27
2018-08-04T21:59:29.798Z,27.83
2018-08-04T22:03:01.031Z,27.52
2018-08-04T22:06:07.441Z,27.65
2018-08-04T22:09:21.646Z,27.99
2018-08-04T22:12:25.947Z,27.82
2018-08-04T22:15:30.570Z,27.68
2018-08-04T22:18:34.660Z,27.77
2018-08-04T22:21:37.921Z,27.59
2018-08-04T22:24:46.150Z,27.57
2018-08-04T22:28:02.159Z,27.52
2018-08-04T22:31:05.799Z,27.68
2018-08-04T22:34:08.963Z,27.49
2018-08-04T22:37:12.106Z,27.67
2018-08-04T22:40:16.045Z,27.28
2018-08-04T22:43:19.177Z,27.48
2018-08-04T22:46:23.526Z,27.38
2018-08-04T22:49:26.657Z,27.35
2018-08-04T22:52:31.251Z,27.50
2018-08-04T22:55:34.350Z,27.44
2018-08-04T22:58:37.456Z,27.38
2018-08-04T23:01:40.695Z,27.40
2018-08-04T23:04:45.355Z,27.25
2018-08-04T23:07:48.440Z,27.25
2018-08-04T23:10:51.980Z,27.31
2018-08-04T23:13:55.098Z,27.17
2018-08-04T23:16:58.290Z,27.16
2018-08-04T23:20:01.476Z,27.19
2018-08-04T23:23:08.391Z,27.09
2018-08-04T23:26:12.385Z,27.13
2018-08-04T23:29:16.536Z,27.07
2018-08-04T23:32:20.466Z,27.17
2018-08-04T23:35:25.494Z,27.25
2018-08-04T23:38:29.521Z,27.17
2018-08-04T23:41:32.655Z,27.09
2018-08-04T23:44:35.784Z,27.12
2018-08-04T23:47:38.967Z,27.30
2018-08-04T23:50:42.080Z,27.09
2018-08-04T23:53:45.173Z,27.00
2018-08-04T23:56:48.270Z,27.05
2018-08-04T23:59:51.450Z,27.06
